Time;durP1;ratioP1;P1;durP2;ratioP2;P2;SDS_P1;SDS_P2;PMS_P1;PMS_P2;Temp;Humidity;BMP_temperature;BMP_pressure;BME280_temperature;BME280_humidity;BME280_pressure;Samples;Min_cycle;Max_cycle;Signal;HPM_P1;HPM_P2
2023/12/23 00:01:03;;;;;;;;;;;;;;;4.90;71.17;98100.47;4462620;32;34138;-73
2023/12/23 00:03:31;;;;;;;;;;;;;;;4.95;71.13;98099.81;4458388;32;33690;-73
2023/12/23 00:05:58;;;;;;;;;;;;;;;4.78;71.90;98100.00;4458761;32;33865;-74
2023/12/23 00:08:25;;;;;;;;;;;;;;;4.65;72.27;98118.25;4458577;32;33961;-73
2023/12/23 00:10:56;;;;;;;;;;;;;;;5.09;70.66;98114.91;4453487;32;34052;-73
2023/12/23 00:13:24;;;;;;;;;;;;;;;5.13;70.29;98118.47;4456967;32;34698;-74
2023/12/23 00:15:51;;;;;;;;;;;;;;;4.93;70.77;98110.87;4456726;32;34862;-73
2023/12/23 00:18:19;;;;;;;;;;;;;;;4.80;71.80;98113.75;4457073;32;34835;-74
2023/12/23 00:20:47;;;;;;;;;;;;;;;4.75;72.08;98102.44;4455376;32;34151;-74
2023/12/23 00:23:14;;;;;;;;;;;;;;;4.53;72.41;98081.03;4456828;32;34192;-73
2023/12/23 00:25:42;;;;;;;;;;;;;;;4.89;72.03;98085.91;4457545;32;34844;-73
2023/12/23 00:28:09;;;;;;;;;;;;;;;4.96;71.66;98078.44;4456356;32;34720;-74
2023/12/23 00:30:37;;;;;;;;;;;;;;;4.97;71.89;98111.00;4456416;32;34121;-73
2023/12/23 00:33:05;;;;;;;;;;;;;;;5.13;70.85;98103.06;4462785;32;33459;-74
2023/12/23 00:35:32;;;;;;;;;;;;;;;5.08;70.96;98076.34;4456579;32;33818;-74
2023/12/23 00:38:00;;;;;;;;;;;;;;;5.13;70.94;98079.97;4455330;32;33335;-74
2023/12/23 00:40:27;;;;;;;;;;;;;;;5.13;70.99;98067.16;4458469;32;33504;-73
2023/12/23 00:42:55;;;;;;;;;;;;;;;5.07;71.33;98046.38;4461002;32;32582;-73
2023/12/23 00:45:22;;;;;;;;;;;;;;;5.16;70.87;98045.84;4458104;32;34350;-73
2023/12/23 00:47:50;;;;;;;;;;;;;;;5.26;70.46;98053.97;4450404;32;33925;-73
2023/12/23 00:50:18;;;;;;;;;;;;;;;5.34;70.21;98067.09;4446835;32;33841;-73
2023/12/23 00:52:45;;;;;;;;;;;;;;;5.23;70.32;98076.06;4453060;32;34047;-73
2023/12/23 00:55:13;;;;;;;;;;;;;;;5.28;70.36;98067.72;4448965;32;34917;-73
2023/12/23 00:57:40;;;;;;;;;;;;;;;5.27;70.53;98065.09;4449319;32;34002;-73
2023/12/23 01:00:07;;;;;;;;;;;;;;;5.17;70.42;98076.72;4449431;32;32924;-73
2023/12/23 01:02:35;;;;;;;;;;;;;;;5.44;69.62;98073.44;4450137;32;33957;-73
2023/12/23 01:05:02;;;;;;;;;;;;;;;5.37;70.10;98061.19;4447298;32;34803;-73
2023/12/23 01:07:29;;;;;;;;;;;;;;;5.28;70.43;98067.72;4452396;32;33567;-73
2023/12/23 01:09:57;;;;;;;;;;;;;;;5.28;70.67;98089.97;4452916;32;33951;-73
2023/12/23 01:12:24;;;;;;;;;;;;;;;5.54;69.31;98103.75;4450384;32;34885;-73
2023/12/23 01:14:52;;;;;;;;;;;;;;;5.58;68.72;98133.00;4451879;32;34059;-73
2023/12/23 01:17:19;;;;;;;;;;;;;;;5.40;69.10;98130.62;4450586;32;35358;-73
2023/12/23 01:19:47;;;;;;;;;;;;;;;5.29;70.07;98141.37;4447807;32;34121;-76
2023/12/23 01:22:15;;;;;;;;;;;;;;;5.32;69.74;98140.59;4452062;32;34791;-76
2023/12/23 01:24:42;;;;;;;;;;;;;;;5.44;69.68;98119.66;4452643;32;33922;-76
2023/12/23 01:27:09;;;;;;;;;;;;;;;5.53;69.31;98135.41;4452168;32;33651;-76
2023/12/23 01:29:37;;;;;;;;;;;;;;;5.50;69.01;98140.44;4451610;32;34039;-76
2023/12/23 01:32:04;;;;;;;;;;;;;;;5.50;69.10;98145.56;4450123;32;33930;-76
2023/12/23 01:34:32;;;;;;;;;;;;;;;5.48;68.82;98142.06;4450411;32;33782;-76
2023/12/23 01:36:59;;;;;;;;;;;;;;;5.45;69.24;98147.09;4451378;32;34165;-75
2023/12/23 01:39:26;;;;;;;;;;;;;;;5.60;68.70;98139.09;4450237;32;33473;-76
2023/12/23 01:41:53;;;;;;;;;;;;;;;5.42;69.24;98141.84;4456059;32;34171;-76
2023/12/23 01:44:21;;;;;;;;;;;;;;;5.39;69.28;98146.84;4447477;32;34778;-76
2023/12/23 01:46:48;;;;;;;;;;;;;;;5.62;68.62;98161.47;4448598;32;34328;-76
2023/12/23 01:49:15;;;;;;;;;;;;;;;5.52;68.90;98164.47;4445721;32;33509;-76
2023/12/23 01:51:43;;;;;;;;;;;;;;;5.48;68.38;98144.62;4447261;32;33424;-76
2023/12/23 01:54:10;;;;;;;;;;;;;;;5.26;69.26;98130.97;4449692;32;35101;-76
2023/12/23 01:56:37;;;;;;;;;;;;;;;5.47;68.76;98124.91;4454123;32;34640;-76
2023/12/23 01:59:05;;;;;;;;;;;;;;;5.38;69.00;98119.44;4454288;32;33173;-76
2023/12/23 02:01:33;;;;;;;;;;;;;;;5.50;68.81;98127.59;4442359;32;34865;-76
2023/12/23 02:04:01;;;;;;;;;;;;;;;5.42;68.99;98131.56;4448791;32;35080;-76
2023/12/23 02:06:28;;;;;;;;;;;;;;;5.36;69.46;98136.47;4445550;32;34165;-76
2023/12/23 02:08:56;;;;;;;;;;;;;;;5.50;68.52;98150.69;4454104;32;34220;-75
2023/12/23 02:11:35;;;;;;;;;;;;;;;5.44;68.61;98155.59;4453206;32;34823;-76
2023/12/23 02:14:06;;;;;;;;;;;;;;;5.63;67.58;98165.75;4454889;32;34819;-75
2023/12/23 02:16:33;;;;;;;;;;;;;;;5.46;67.86;98170.25;4448947;32;34021;-76
2023/12/23 02:19:01;;;;;;;;;;;;;;;5.29;68.97;98186.69;4453858;32;34009;-75
2023/12/23 02:21:28;;;;;;;;;;;;;;;5.40;68.41;98210.22;4454126;32;34681;-76
2023/12/23 02:23:56;;;;;;;;;;;;;;;5.26;69.03;98213.12;4451577;32;34379;-76
2023/12/23 02:26:24;;;;;;;;;;;;;;;5.30;68.89;98206.44;4451571;32;34726;-76
2023/12/23 02:28:52;;;;;;;;;;;;;;;5.08;69.31;98204.66;4447987;32;33918;-75
2023/12/23 02:31:19;;;;;;;;;;;;;;;5.04;69.91;98185.72;4449039;32;34546;-75
2023/12/23 02:33:47;;;;;;;;;;;;;;;5.13;69.66;98203.19;4449234;32;34005;-75
2023/12/23 02:36:20;;;;;;;;;;;;;;;5.20;69.37;98215.44;4446059;32;33928;-75
2023/12/23 02:38:48;;;;;;;;;;;;;;;5.02;69.99;98212.13;4452866;32;33548;-75
2023/12/23 02:41:16;;;;;;;;;;;;;;;5.01;70.60;98206.12;4453983;32;33870;-75
2023/12/23 02:43:43;;;;;;;;;;;;;;;4.90;70.89;98213.38;4448489;32;34232;-75
2023/12/23 02:46:10;;;;;;;;;;;;;;;4.77;71.47;98195.75;4445826;32;34045;-76
2023/12/23 02:48:38;;;;;;;;;;;;;;;5.03;70.44;98189.09;4454587;32;33388;-75
2023/12/23 02:51:05;;;;;;;;;;;;;;;5.00;70.56;98211.19;4451207;32;34923;-75
2023/12/23 02:53:33;;;;;;;;;;;;;;;4.82;71.33;98213.88;4451280;32;34177;-75
2023/12/23 02:56:00;;;;;;;;;;;;;;;4.84;71.12;98223.38;4453400;32;34350;-75
2023/12/23 02:58:27;;;;;;;;;;;;;;;4.86;71.22;98221.75;4452229;32;33594;-75
2023/12/23 03:00:55;;;;;;;;;;;;;;;4.85;71.71;98222.59;4453677;32;34810;-75
2023/12/23 03:03:24;;;;;;;;;;;;;;;4.55;72.54;98236.66;4454233;32;34115;-76
2023/12/23 03:05:52;;;;;;;;;;;;;;;4.64;72.55;98234.50;4449530;32;33884;-75
2023/12/23 03:08:19;;;;;;;;;;;;;;;4.76;71.98;98224.75;4453470;32;33583;-75
2023/12/23 03:10:47;;;;;;;;;;;;;;;4.59;72.57;98229.16;4453834;32;33796;-75
2023/12/23 03:13:14;;;;;;;;;;;;;;;4.64;72.87;98234.50;4454163;32;35356;-75
2023/12/23 03:15:41;;;;;;;;;;;;;;;4.82;72.03;98253.22;4453914;32;34300;-76
2023/12/23 03:18:09;;;;;;;;;;;;;;;4.70;72.48;98234.75;4453516;32;34028;-75
2023/12/23 03:20:36;;;;;;;;;;;;;;;4.87;71.72;98238.91;4450845;32;34329;-75
2023/12/23 03:23:03;;;;;;;;;;;;;;;4.57;73.08;98227.34;4454026;32;35002;-75
2023/12/23 03:25:31;;;;;;;;;;;;;;;4.82;72.24;98235.25;4454008;32;34812;-75
2023/12/23 03:27:58;;;;;;;;;;;;;;;4.90;71.91;98264.69;4450868;32;32706;-75
2023/12/23 03:30:25;;;;;;;;;;;;;;;4.85;72.05;98281.59;4451135;32;33842;-75
2023/12/23 03:32:53;;;;;;;;;;;;;;;4.64;73.13;98290.94;4450098;32;32605;-75
2023/12/23 03:35:21;;;;;;;;;;;;;;;4.74;72.77;98316.16;4453542;32;33738;-75
2023/12/23 03:37:49;;;;;;;;;;;;;;;4.73;72.69;98320.41;4449817;32;33906;-75
2023/12/23 03:40:16;;;;;;;;;;;;;;;4.57;73.39;98315.41;4446201;32;34042;-75
2023/12/23 03:42:44;;;;;;;;;;;;;;;4.75;73.35;98314.47;4448883;32;34800;-75
2023/12/23 03:45:11;;;;;;;;;;;;;;;4.92;72.36;98306.72;4451480;32;34174;-75
2023/12/23 03:47:40;;;;;;;;;;;;;;;4.90;72.13;98295.47;4448635;32;34157;-75
2023/12/23 03:50:09;;;;;;;;;;;;;;;4.76;72.51;98281.19;4453859;32;34695;-75
2023/12/23 03:52:37;;;;;;;;;;;;;;;5.02;71.79;98268.59;4446867;32;34924;-75
2023/12/23 03:55:05;;;;;;;;;;;;;;;4.71;72.67;98257.03;4448589;32;33900;-75
2023/12/23 03:57:32;;;;;;;;;;;;;;;4.80;73.04;98259.97;4453649;32;32953;-75
2023/12/23 03:59:59;;;;;;;;;;;;;;;5.00;72.25;98259.94;4453378;32;34173;-75
2023/12/23 04:02:26;;;;;;;;;;;;;;;4.86;72.79;98278.19;4453507;32;35444;-76
2023/12/23 04:04:54;;;;;;;;;;;;;;;5.00;72.09;98259.94;4450177;32;33575;-76
2023/12/23 04:07:21;;;;;;;;;;;;;;;4.77;72.80;98272.69;4448866;32;34042;-76
2023/12/23 04:09:49;;;;;;;;;;;;;;;4.90;72.10;98259.56;4450269;32;34664;-76
2023/12/23 04:12:17;;;;;;;;;;;;;;;4.91;72.13;98256.19;4446121;32;35023;-75
2023/12/23 04:14:44;;;;;;;;;;;;;;;4.95;71.74;98256.31;4449620;32;34236;-75
2023/12/23 04:17:11;;;;;;;;;;;;;;;5.16;70.95;98244.38;4446534;32;32992;-76
2023/12/23 04:19:39;;;;;;;;;;;;;;;4.85;71.67;98235.41;4453308;32;32305;-76
2023/12/23 04:22:06;;;;;;;;;;;;;;;5.13;71.23;98241.69;4453805;32;33882;-75
2023/12/23 04:24:33;;;;;;;;;;;;;;;5.09;71.15;98250.94;4453229;32;34245;-75
2023/12/23 04:27:01;;;;;;;;;;;;;;;5.09;71.07;98260.34;4453890;32;33214;-75
2023/12/23 04:29:29;;;;;;;;;;;;;;;5.16;70.76;98258.88;4448977;32;34045;-76
2023/12/23 04:31:56;;;;;;;;;;;;;;;5.18;70.71;98264.97;4451207;32;32600;-76
2023/12/23 04:34:24;;;;;;;;;;;;;;;5.12;70.54;98251.06;4453250;32;34953;-76
2023/12/23 04:36:51;;;;;;;;;;;;;;;4.82;71.97;98253.22;4453574;32;33680;-76
2023/12/23 04:39:18;;;;;;;;;;;;;;;4.74;71.90;98249.47;4451319;32;34204;-76
2023/12/23 04:41:49;;;;;;;;;;;;;;;4.66;72.78;98240.56;4452249;32;34563;-76
2023/12/23 04:44:16;;;;;;;;;;;;;;;4.75;73.05;98253.78;4453047;32;33746;-76
2023/12/23 04:46:44;;;;;;;;;;;;;;;4.71;72.60;98246.75;4448473;32;33805;-76
2023/12/23 04:49:12;;;;;;;;;;;;;;;4.67;73.70;98250.88;4450886;32;33894;-76
2023/12/23 04:51:43;;;;;;;;;;;;;;;4.97;72.08;98268.41;4449803;32;33882;-76
2023/12/23 04:54:11;;;;;;;;;;;;;;;4.78;72.62;98284.69;4449413;32;34002;-76
2023/12/23 04:56:39;;;;;;;;;;;;;;;5.02;72.08;98286.53;4452297;32;33317;-75
2023/12/23 04:59:08;;;;;;;;;;;;;;;5.31;70.64;98298.91;4450843;32;34010;-76
2023/12/23 05:01:35;;;;;;;;;;;;;;;5.26;70.39;98304.69;4452839;32;34055;-76
2023/12/23 05:04:03;;;;;;;;;;;;;;;5.15;70.69;98313.62;4448225;32;32672;-76
2023/12/23 05:06:30;;;;;;;;;;;;;;;4.80;72.19;98308.72;4448628;32;33238;-76
2023/12/23 05:08:58;;;;;;;;;;;;;;;4.76;72.59;98311.09;4451202;32;34209;-76
2023/12/23 05:11:26;;;;;;;;;;;;;;;4.75;71.95;98317.03;4452594;32;34044;-75
2023/12/23 05:13:53;;;;;;;;;;;;;;;4.88;72.02;98316.75;4452461;32;34231;-76
2023/12/23 05:16:21;;;;;;;;;;;;;;;4.89;71.80;98350.19;4448732;32;32761;-76
2023/12/23 05:18:48;;;;;;;;;;;;;;;4.59;72.39;98346.25;4446557;32;34924;-75
2023/12/23 05:21:16;;;;;;;;;;;;;;;4.28;73.70;98357.69;4452254;32;33970;-75
2023/12/23 05:23:43;;;;;;;;;;;;;;;4.19;74.85;98363.28;4452962;32;34234;-75
2023/12/23 05:26:11;;;;;;;;;;;;;;;4.32;74.44;98369.81;4449614;32;33676;-75
2023/12/23 05:28:38;;;;;;;;;;;;;;;4.17;74.72;98374.25;4452053;32;33858;-75
2023/12/23 05:31:05;;;;;;;;;;;;;;;4.44;74.10;98392.59;4449912;32;32601;-75
2023/12/23 05:33:33;;;;;;;;;;;;;;;4.33;74.21;98402.38;4452675;32;34718;-75
2023/12/23 05:36:01;;;;;;;;;;;;;;;4.16;74.95;98403.25;4452662;32;33399;-75
2023/12/23 05:38:28;;;;;;;;;;;;;;;4.08;74.83;98395.19;4448660;32;32294;-75
2023/12/23 05:40:56;;;;;;;;;;;;;;;4.13;75.50;98419.34;4450929;32;34864;-75
2023/12/23 05:43:23;;;;;;;;;;;;;;;4.07;75.54;98426.75;4446858;32;33952;-75
2023/12/23 05:45:50;;;;;;;;;;;;;;;4.12;75.33;98431.28;4452273;32;33501;-75
2023/12/23 05:48:18;;;;;;;;;;;;;;;4.06;75.38;98432.69;4441152;32;33953;-75
2023/12/23 05:50:45;;;;;;;;;;;;;;;3.92;76.20;98442.25;4447246;32;34284;-75
2023/12/23 05:53:13;;;;;;;;;;;;;;;3.81;76.79;98451.09;4451134;32;34125;-75
2023/12/23 05:55:40;;;;;;;;;;;;;;;3.96;76.34;98464.66;4452300;32;33464;-75
2023/12/23 05:58:08;;;;;;;;;;;;;;;3.79;76.93;98478.31;4442415;32;34678;-75
2023/12/23 06:00:35;;;;;;;;;;;;;;;3.81;76.33;98474.16;4452904;32;34733;-75
2023/12/23 06:03:02;;;;;;;;;;;;;;;3.90;75.83;98467.81;4451291;32;34980;-75
2023/12/23 06:05:30;;;;;;;;;;;;;;;3.70;76.36;98481.28;4455472;32;33096;-76
2023/12/23 06:07:58;;;;;;;;;;;;;;;3.91;75.71;98490.03;4450444;32;34470;-75
2023/12/23 06:10:26;;;;;;;;;;;;;;;3.77;76.10;98505.50;4450079;32;33031;-76
2023/12/23 06:12:53;;;;;;;;;;;;;;;3.75;76.57;98500.34;4450125;32;34808;-75
2023/12/23 06:15:20;;;;;;;;;;;;;;;3.70;76.77;98500.09;4441781;32;31449;-76
2023/12/23 06:17:50;;;;;;;;;;;;;;;3.78;76.70;98489.34;4451747;32;34161;-76
2023/12/23 06:20:18;;;;;;;;;;;;;;;3.80;77.00;98490.31;4453832;32;34106;-75
2023/12/23 06:22:45;;;;;;;;;;;;;;;3.85;76.64;98504.25;4455747;32;34733;-76
2023/12/23 06:25:13;;;;;;;;;;;;;;;4.07;76.12;98512.16;4459635;32;33405;-76
2023/12/23 06:27:40;;;;;;;;;;;;;;;4.00;76.27;98507.56;4455564;32;33910;-76
2023/12/23 06:30:07;;;;;;;;;;;;;;;4.04;75.82;98503.47;4451508;32;33888;-76
2023/12/23 06:32:35;;;;;;;;;;;;;;;4.18;75.50;98520.41;4452779;32;34681;-75
2023/12/23 06:35:02;;;;;;;;;;;;;;;4.16;75.40;98546.78;4458265;32;33047;-76
2023/12/23 06:37:30;;;;;;;;;;;;;;;4.05;76.03;98513.78;4448981;32;33833;-76
2023/12/23 06:39:59;;;;;;;;;;;;;;;4.18;75.55;98519.53;4446384;32;34047;-75
2023/12/23 06:42:26;;;;;;;;;;;;;;;4.19;75.79;98519.62;4444292;32;34346;-75
2023/12/23 06:44:54;;;;;;;;;;;;;;;4.27;75.48;98530.25;4453865;32;33285;-76
2023/12/23 06:47:21;;;;;;;;;;;;;;;4.33;74.82;98546.78;4449151;32;34644;-76
2023/12/23 06:49:49;;;;;;;;;;;;;;;4.48;75.00;98550.88;4454286;32;34151;-76
2023/12/23 06:52:16;;;;;;;;;;;;;;;4.50;75.05;98542.50;4451458;32;32808;-75
2023/12/23 06:54:44;;;;;;;;;;;;;;;4.42;74.83;98546.34;4448178;32;34233;-75
2023/12/23 06:57:11;;;;;;;;;;;;;;;4.45;75.08;98554.19;4444061;32;34059;-75
2023/12/23 06:59:39;;;;;;;;;;;;;;;4.43;74.81;98560.94;4453749;32;34009;-75
2023/12/23 07:02:07;;;;;;;;;;;;;;;4.42;75.11;98541.22;4450852;32;34151;-76
2023/12/23 07:04:34;;;;;;;;;;;;;;;4.39;75.20;98545.34;4445786;32;32044;-78
2023/12/23 07:07:02;;;;;;;;;;;;;;;4.41;75.08;98518.97;4448724;32;34078;-76
2023/12/23 07:09:30;;;;;;;;;;;;;;;4.23;75.55;98538.56;4453264;32;34756;-76
2023/12/23 07:11:57;;;;;;;;;;;;;;;4.18;75.61;98520.41;4453053;32;34328;-76
2023/12/23 07:14:24;;;;;;;;;;;;;;;4.23;75.59;98515.50;4453159;32;33075;-76
2023/12/23 07:16:52;;;;;;;;;;;;;;;4.39;74.77;98556.47;4453404;32;34265;-75
2023/12/23 07:19:19;;;;;;;;;;;;;;;4.38;74.70;98549.56;4451563;32;33601;-76
2023/12/23 07:21:52;;;;;;;;;;;;;;;4.55;73.50;98559.78;4448892;32;33353;-76
2023/12/23 07:24:20;;;;;;;;;;;;;;;4.52;73.23;98579.34;4451592;32;33299;-77
2023/12/23 07:26:47;;;;;;;;;;;;;;;4.47;73.54;98597.87;4446758;32;34167;-77
2023/12/23 07:29:15;;;;;;;;;;;;;;;4.21;74.17;98597.47;4452230;32;33608;-76
2023/12/23 07:31:43;;;;;;;;;;;;;;;4.35;74.13;98610.97;4449580;32;33970;-76
2023/12/23 07:34:10;;;;;;;;;;;;;;;4.12;74.81;98602.97;4452402;32;33883;-76
2023/12/23 07:36:38;;;;;;;;;;;;;;;4.24;74.28;98612.09;4450422;32;33738;-75
2023/12/23 07:39:05;;;;;;;;;;;;;;;4.37;73.91;98624.75;4445644;32;32446;-76
2023/12/23 07:41:32;;;;;;;;;;;;;;;4.11;74.58;98625.97;4444411;32;34277;-76
2023/12/23 07:44:00;;;;;;;;;;;;;;;3.93;75.77;98631.03;4449999;32;33917;-76
2023/12/23 07:46:27;;;;;;;;;;;;;;;4.04;75.23;98624.78;4454891;32;34005;-76
2023/12/23 07:48:54;;;;;;;;;;;;;;;4.16;75.30;98641.59;4458758;32;33550;-77
2023/12/23 07:51:22;;;;;;;;;;;;;;;4.20;74.78;98633.25;4454594;32;34102;-76
2023/12/23 07:53:49;;;;;;;;;;;;;;;4.38;74.28;98651.25;4432892;32;828063;-76
2023/12/23 07:56:17;;;;;;;;;;;;;;;4.09;75.51;98648.94;4458709;32;34070;-76
2023/12/23 07:58:44;;;;;;;;;;;;;;;4.34;74.34;98661.34;4453081;32;33999;-76
2023/12/23 08:01:12;;;;;;;;;;;;;;;4.48;73.94;98664.63;4450126;32;34624;-75
2023/12/23 08:03:40;;;;;;;;;;;;;;;4.58;73.31;98685.56;4449907;32;33504;-77
2023/12/23 08:06:08;;;;;;;;;;;;;;;4.57;73.80;98694.09;4453193;32;33855;-77
2023/12/23 08:08:35;;;;;;;;;;;;;;;4.77;73.03;98707.91;4456681;32;34447;-75
2023/12/23 08:11:02;;;;;;;;;;;;;;;4.53;73.95;98711.88;4459115;32;33568;-76
2023/12/23 08:13:30;;;;;;;;;;;;;;;4.84;73.24;98718.53;4457532;32;33348;-75
2023/12/23 08:15:57;;;;;;;;;;;;;;;4.86;72.56;98718.63;4457123;32;34829;-75
2023/12/23 08:18:25;;;;;;;;;;;;;;;5.03;72.01;98734.88;4449114;32;33553;-78
2023/12/23 08:20:52;;;;;;;;;;;;;;;4.97;72.42;98737.13;4451151;32;33907;-76
2023/12/23 08:23:19;;;;;;;;;;;;;;;5.02;72.16;98740.78;4449774;32;34635;-76
2023/12/23 08:25:47;;;;;;;;;;;;;;;5.25;71.02;98745.41;4454246;32;34738;-78
2023/12/23 08:28:14;;;;;;;;;;;;;;;5.27;70.69;98743.78;4448621;32;34010;-79
2023/12/23 08:30:42;;;;;;;;;;;;;;;5.29;70.57;98744.75;4453755;32;33814;-76
2023/12/23 08:33:10;;;;;;;;;;;;;;;5.11;70.45;98746.38;4452479;32;32738;-79
2023/12/23 08:35:37;;;;;;;;;;;;;;;5.42;69.53;98758.16;4449609;32;33958;-75
2023/12/23 08:38:09;;;;;;;;;;;;;;;5.03;70.68;98752.84;4448605;32;32041;-76
2023/12/23 08:40:36;;;;;;;;;;;;;;;5.25;70.25;98765.94;4454581;32;34436;-77
2023/12/23 08:43:03;;;;;;;;;;;;;;;5.14;70.96;98769.66;4446328;32;33589;-76
2023/12/23 08:45:31;;;;;;;;;;;;;;;5.58;68.92;98770.94;4451826;32;34230;-77
2023/12/23 08:47:58;;;;;;;;;;;;;;;5.57;68.92;98764.03;4453420;32;34789;-75
2023/12/23 08:50:25;;;;;;;;;;;;;;;5.70;68.04;98771.50;4453541;32;34294;-74
2023/12/23 08:52:53;;;;;;;;;;;;;;;5.82;67.10;98778.03;4451827;32;33319;-74
2023/12/23 08:55:20;;;;;;;;;;;;;;;6.33;89.46;98781.25;4453489;32;34344;-77
2023/12/23 08:57:48;;;;;;;;;;;;;;;6.23;76.54;98791.97;4453602;32;34258;-77
2023/12/23 09:00:15;;;;;;;;;;;;;;;6.41;79.21;98795.38;4453768;32;34425;-73
2023/12/23 09:02:43;;;;;;;;;;;;;;;6.08;70.39;98795.59;4450071;32;33179;-75
2023/12/23 09:05:10;;;;;;;;;;;;;;;6.10;65.24;98793.97;4452867;32;34966;-73
2023/12/23 09:07:37;;;;;;;;;;;;;;;5.81;65.96;98797.69;4452038;32;35100;-77
2023/12/23 09:10:05;;;;;;;;;;;;;;;5.63;65.39;98797.72;4440357;32;34613;-74
2023/12/23 09:12:35;;;;;;;;;;;;;;;5.71;64.28;98801.53;4453004;32;33195;-74
2023/12/23 09:15:03;;;;;;;;;;;;;;;5.76;63.80;98803.47;4453090;32;34162;-75
2023/12/23 09:17:31;;;;;;;;;;;;;;;5.81;63.23;98807.09;4444121;32;34745;-75
2023/12/23 09:20:01;;;;;;;;;;;;;;;5.62;63.69;98805.34;4449417;32;34683;-75
2023/12/23 09:22:28;;;;;;;;;;;;;;;5.53;63.84;98807.50;4437658;32;33154;-75
2023/12/23 09:24:56;;;;;;;;;;;;;;;5.53;62.62;98808.34;4444870;32;34270;-75
2023/12/23 09:27:23;;;;;;;;;;;;;;;5.50;63.29;98803.06;4450239;32;33852;-76
2023/12/23 09:29:50;;;;;;;;;;;;;;;5.61;63.01;98817.31;4443056;32;34374;-74
2023/12/23 09:32:21;;;;;;;;;;;;;;;5.36;64.03;98814.34;4448380;32;33358;-77
2023/12/23 09:34:49;;;;;;;;;;;;;;;5.61;62.04;98808.72;4453078;32;34020;-74
2023/12/23 09:37:17;;;;;;;;;;;;;;;5.83;61.71;98802.91;4443507;32;33835;-75
2023/12/23 09:39:44;;;;;;;;;;;;;;;5.66;62.10;98787.59;4449980;32;34441;-75
2023/12/23 09:42:12;;;;;;;;;;;;;;;5.77;60.84;98787.22;4453005;32;34154;-76
2023/12/23 09:44:40;;;;;;;;;;;;;;;5.66;61.91;98779.88;4451118;32;33879;-75
2023/12/23 09:47:07;;;;;;;;;;;;;;;5.73;61.60;98775.91;4447419;32;34000;-75
2023/12/23 09:49:36;;;;;;;;;;;;;;;5.83;61.67;98772.06;4450986;32;33920;-76
2023/12/23 09:52:04;;;;;;;;;;;;;;;5.91;61.61;98773.34;4452706;32;33076;-76
2023/12/23 09:54:33;;;;;;;;;;;;;;;5.88;61.90;98792.03;4445428;32;33919;-77
2023/12/23 09:57:01;;;;;;;;;;;;;;;5.81;61.55;98795.13;4441992;32;34534;-77
2023/12/23 09:59:28;;;;;;;;;;;;;;;5.86;61.33;98803.06;4451255;32;34659;-77
2023/12/23 10:01:55;;;;;;;;;;;;;;;5.59;62.04;98798.38;4455935;32;33329;-75
2023/12/23 10:04:23;;;;;;;;;;;;;;;5.73;61.53;98796.47;4455984;32;34779;-75
2023/12/23 10:06:51;;;;;;;;;;;;;;;5.82;61.13;98816.59;4457125;32;33893;-75
2023/12/23 10:09:18;;;;;;;;;;;;;;;5.75;61.53;98799.09;4458311;32;34181;-76
2023/12/23 10:11:45;;;;;;;;;;;;;;;5.47;61.96;98802.94;4454862;32;34125;-77
2023/12/23 10:14:13;;;;;;;;;;;;;;;5.63;60.80;98808.00;4455461;32;34046;-74
2023/12/23 10:16:40;;;;;;;;;;;;;;;5.78;61.09;98809.56;4464353;32;34582;-77
2023/12/23 10:19:10;;;;;;;;;;;;;;;5.64;61.70;98808.84;4459265;32;34492;-76
2023/12/23 10:21:40;;;;;;;;;;;;;;;5.69;61.84;98813.41;4458297;32;34117;-77
2023/12/23 10:24:07;;;;;;;;;;;;;;;5.71;61.04;98804.09;4457903;32;34152;-76
2023/12/23 10:26:34;;;;;;;;;;;;;;;5.64;60.37;98807.19;4452706;32;34695;-75
2023/12/23 10:29:03;;;;;;;;;;;;;;;5.99;77.40;98796.84;4452320;32;33361;-76
2023/12/23 10:31:32;;;;;;;;;;;;;;;5.65;72.26;98797.78;4450523;32;33245;-76
2023/12/23 10:34:00;;;;;;;;;;;;;;;5.60;71.99;98797.59;4451689;32;33748;-75
2023/12/23 10:36:27;;;;;;;;;;;;;;;5.87;73.17;98797.09;4448576;32;33950;-75
2023/12/23 10:38:58;;;;;;;;;;;;;;;5.97;73.92;98796.78;4451045;32;34545;-76
2023/12/23 10:41:35;;;;;;;;;;;;;;;6.15;75.96;98807.03;4450813;32;33147;-75
2023/12/23 10:44:03;;;;;;;;;;;;;;;6.56;64.30;98797.72;4449149;32;34875;-76
2023/12/23 10:46:30;;;;;;;;;;;;;;;6.38;66.54;98800.38;4445029;32;34233;-76
2023/12/23 10:48:58;;;;;;;;;;;;;;;6.17;75.99;98804.53;4444152;32;35144;-74
2023/12/23 10:51:25;;;;;;;;;;;;;;;6.50;74.85;98795.75;4446087;32;33112;-75
2023/12/23 10:53:54;;;;;;;;;;;;;;;6.82;67.37;98798.03;4454500;32;34234;-76
2023/12/23 10:56:22;;;;;;;;;;;;;;;6.66;65.41;98784.47;4452331;32;33960;-76
2023/12/23 10:58:49;;;;;;;;;;;;;;;6.65;65.24;98780.13;4452950;32;34238;-75
2023/12/23 11:01:17;;;;;;;;;;;;;;;6.84;57.54;98784.38;4453526;32;33651;-75
2023/12/23 11:03:44;;;;;;;;;;;;;;;6.70;55.38;98762.31;4448397;32;34137;-77
2023/12/23 11:06:11;;;;;;;;;;;;;;;6.14;58.22;98784.69;4448415;32;34164;-75
2023/12/23 11:08:40;;;;;;;;;;;;;;;6.12;54.71;98754.59;4455268;32;34414;-75
2023/12/23 11:11:07;;;;;;;;;;;;;;;5.70;58.31;98761.22;4450693;32;33544;-75
2023/12/23 11:13:34;;;;;;;;;;;;;;;5.50;58.55;98764.53;4450845;32;34379;-75
2023/12/23 11:16:02;;;;;;;;;;;;;;;5.15;59.75;98763.69;4451540;32;35388;-74
2023/12/23 11:18:30;;;;;;;;;;;;;;;5.53;59.37;98757.00;4453573;32;33733;-76
2023/12/23 11:20:58;;;;;;;;;;;;;;;5.48;62.65;98769.59;4452926;32;34141;-75
2023/12/23 11:23:32;;;;;;;;;;;;;;;5.63;63.31;98759.19;4451544;32;34836;-75
2023/12/23 11:26:00;;;;;;;;;;;;;;;5.48;61.89;98758.44;4453037;32;34665;-75
2023/12/23 11:28:33;;;;;;;;;;;;;;;5.32;63.66;98756.84;4453194;32;34138;-74
2023/12/23 11:31:00;;;;;;;;;;;;;;;5.42;63.77;98742.75;4453181;32;33364;-74
2023/12/23 11:33:30;;;;;;;;;;;;;;;5.13;66.50;98734.50;4452967;32;34016;-75
2023/12/23 11:35:58;;;;;;;;;;;;;;;5.10;67.32;98734.38;4454136;32;34822;-75
2023/12/23 11:38:29;;;;;;;;;;;;;;;4.84;70.32;98727.94;4457373;32;33925;-75
2023/12/23 11:40:57;;;;;;;;;;;;;;;4.77;74.78;98721.63;4456936;32;33533;-75
2023/12/23 11:43:24;;;;;;;;;;;;;;;5.00;72.40;98716.75;4455141;32;34845;-74
2023/12/23 11:45:51;;;;;;;;;;;;;;;5.10;73.23;98701.00;4461178;32;34314;-74
2023/12/23 11:48:20;;;;;;;;;;;;;;;5.41;69.30;98699.88;4455874;32;35059;-75
2023/12/23 11:50:48;;;;;;;;;;;;;;;5.11;70.14;98695.06;4456268;32;35083;-75
2023/12/23 11:53:16;;;;;;;;;;;;;;;5.19;70.59;98700.56;4458566;32;33809;-74
2023/12/23 11:55:43;;;;;;;;;;;;;;;5.13;70.44;98704.56;4458515;32;34785;-73
2023/12/23 11:58:10;;;;;;;;;;;;;;;4.75;73.64;98692.44;4458049;32;34468;-76
2023/12/23 12:00:40;;;;;;;;;;;;;;;5.12;74.87;98686.56;4459780;32;33588;-76
2023/12/23 12:03:09;;;;;;;;;;;;;;;5.23;69.86;98690.50;4449848;32;34921;-75
2023/12/23 12:05:36;;;;;;;;;;;;;;;4.61;69.90;98671.22;4455596;32;34945;-75
2023/12/23 12:08:03;;;;;;;;;;;;;;;4.34;70.50;98673.28;4450260;32;32525;-75
2023/12/23 12:10:31;;;;;;;;;;;;;;;4.42;71.21;98666.84;4451171;32;33180;-75
2023/12/23 12:12:58;;;;;;;;;;;;;;;4.43;71.42;98658.38;4450692;32;34667;-76
2023/12/23 12:15:25;;;;;;;;;;;;;;;4.36;71.64;98646.03;4448270;32;33995;-75
2023/12/23 12:17:53;;;;;;;;;;;;;;;4.36;71.98;98647.72;4445541;32;33854;-75
2023/12/23 12:20:22;;;;;;;;;;;;;;;4.49;71.56;98640.72;4458862;32;33264;-75
2023/12/23 12:22:50;;;;;;;;;;;;;;;4.55;71.42;98627.31;4451338;32;33588;-74
2023/12/23 12:25:18;;;;;;;;;;;;;;;4.56;71.30;98617.94;4453849;32;34177;-75
2023/12/23 12:27:45;;;;;;;;;;;;;;;4.51;71.42;98615.16;4447036;32;34322;-77
2023/12/23 12:30:13;;;;;;;;;;;;;;;4.37;72.50;98619.59;4452565;32;33134;-74
2023/12/23 12:32:42;;;;;;;;;;;;;;;4.65;70.96;98628.66;4453328;32;35024;-75
2023/12/23 12:35:10;;;;;;;;;;;;;;;4.58;71.31;98640.31;4450104;32;34384;-77
2023/12/23 12:37:40;;;;;;;;;;;;;;;4.79;70.61;98647.28;4449203;32;34193;-75
2023/12/23 12:40:12;;;;;;;;;;;;;;;4.69;70.79;98649.44;4455356;32;33840;-75
2023/12/23 12:42:46;;;;;;;;;;;;;;;4.66;70.00;98648.38;4455433;32;34072;-74
2023/12/23 12:45:14;;;;;;;;;;;;;;;4.68;70.52;98647.66;4454783;32;34187;-76
2023/12/23 12:47:41;;;;;;;;;;;;;;;4.82;70.04;98666.28;4452908;32;34336;-75
2023/12/23 12:50:09;;;;;;;;;;;;;;;4.91;69.83;98676.13;4453676;32;33472;-73
2023/12/23 12:52:37;;;;;;;;;;;;;;;5.00;69.61;98680.81;4444822;32;34114;-75
2023/12/23 12:55:05;;;;;;;;;;;;;;;5.06;69.55;98671.75;4448343;32;33964;-76
2023/12/23 12:57:32;;;;;;;;;;;;;;;4.80;69.95;98683.28;4450829;32;34753;-76
2023/12/23 12:59:59;;;;;;;;;;;;;;;4.74;70.25;98677.84;4451707;32;33700;-76